createdAt,value
2016-09-23T00:06:15.803Z,13.8
2016-09-23T00:21:15.806Z,13.7
2016-09-23T00:36:15.793Z,13.7
2016-09-23T00:51:15.819Z,13.7
2016-09-23T01:06:15.711Z,13.6
2016-09-23T01:21:21.837Z,13.5
2016-09-23T01:36:15.810Z,13.4
2016-09-23T01:51:17.821Z,13.3
2016-09-23T02:06:17.826Z,13.3
2016-09-23T02:21:15.815Z,13.2
2016-09-23T02:36:15.818Z,13.1
2016-09-23T02:51:13.715Z,13.1
2016-09-23T03:06:13.720Z,13
2016-09-23T03:21:13.720Z,12.9
2016-09-23T03:36:15.713Z,12.9
2016-09-23T03:51:17.830Z,12.8
2016-09-23T04:06:15.723Z,12.8
2016-09-23T04:21:13.722Z,12.7
2016-09-23T04:36:13.727Z,12.6
2016-09-23T04:51:15.831Z,12.5
2016-09-23T05:06:13.725Z,12.5
2016-09-23T05:21:13.741Z,12.6
2016-09-23T05:36:15.845Z,12.7
2016-09-23T05:51:15.830Z,12.7
2016-09-23T06:06:15.858Z,12.7
2016-09-23T06:21:13.730Z,13
2016-09-23T06:36:13.745Z,13.1
2016-09-23T06:51:13.741Z,13.4
2016-09-23T07:06:13.743Z,13.7
2016-09-23T07:21:19.965Z,14
2016-09-23T07:36:15.852Z,14.1
2016-09-23T07:51:15.750Z,14.4
2016-09-23T08:06:13.755Z,14.9
2016-09-23T08:21:13.760Z,15.3
2016-09-23T08:36:13.751Z,15.7
2016-09-23T08:51:15.863Z,16
2016-09-23T09:06:15.765Z,16.2
2016-09-23T09:21:13.763Z,16.7
2016-09-23T09:36:13.752Z,17.3
2016-09-23T09:51:15.860Z,17.9
2016-09-23T10:06:15.862Z,18.3
2016-09-23T10:21:13.758Z,18.8
2016-09-23T10:36:15.872Z,19.1
2016-09-23T10:51:15.883Z,19.2
2016-09-23T11:06:13.783Z,19.5
2016-09-23T11:21:13.773Z,19.8
2016-09-23T11:36:17.794Z,20.1
2016-09-23T11:51:13.790Z,20.3
2016-09-23T12:06:17.901Z,20.3
2016-09-23T12:21:13.791Z,20.5
2016-09-23T12:36:13.780Z,20.2
2016-09-23T12:51:13.793Z,20
2016-09-23T13:06:15.904Z,19.8
2016-09-23T13:21:13.789Z,19.6
2016-09-23T13:36:15.907Z,19.6
2016-09-23T13:51:15.810Z,19.7
2016-09-23T14:06:15.913Z,19.7
2016-09-23T14:21:20.023Z,19.5
2016-09-23T14:36:15.894Z,19.7
2016-09-23T14:51:18.028Z,20
2016-09-23T15:06:17.826Z,20.2
2016-09-23T15:21:13.816Z,20.2
2016-09-23T15:36:13.823Z,19.9
2016-09-23T15:51:13.806Z,19.8
2016-09-23T16:06:15.816Z,19.6
2016-09-23T16:21:13.804Z,19.5
2016-09-23T16:36:13.831Z,19.3
2016-09-23T16:51:15.929Z,19
2016-09-23T17:06:15.918Z,18.7
2016-09-23T17:21:15.831Z,18.4
2016-09-23T17:36:15.930Z,18.2
2016-09-23T17:51:13.830Z,17.9
2016-09-23T18:06:22.265Z,17.6
2016-09-23T18:21:13.840Z,17.5
2016-09-23T18:36:13.839Z,17.3
2016-09-23T18:51:13.837Z,17.1
2016-09-23T19:06:15.853Z,16.8
2016-09-23T19:21:15.853Z,16.6
2016-09-23T19:36:17.860Z,16.4
2016-09-23T19:51:18.063Z,16.2
2016-09-23T20:06:20.070Z,16.1
2016-09-23T20:21:13.842Z,15.9
2016-09-23T20:36:13.851Z,15.7
2016-09-23T20:51:17.986Z,15.5
2016-09-23T21:06:13.856Z,15.4
2016-09-23T21:21:13.856Z,15.2
2016-09-23T21:36:13.856Z,15
2016-09-23T21:51:15.851Z,14.8
2016-09-23T22:06:13.848Z,14.6
2016-09-23T22:21:15.947Z,14.4
2016-09-23T22:36:15.960Z,14.2
2016-09-23T22:51:15.968Z,14.1
2016-09-23T23:06:15.963Z,13.8
2016-09-23T23:21:15.958Z,13.6
2016-09-23T23:36:15.957Z,13.3
2016-09-23T23:51:15.951Z,13.2
